createdAt,value
2023-06-07T02:04:55.312Z,16.62
2023-06-07T02:09:36.048Z,16.68
2023-06-07T04:55:09.956Z,17.60
2023-06-07T04:56:18.369Z,17.72
2023-06-07T04:57:11.910Z,17.77
2023-06-07T04:58:29.682Z,17.77
2023-06-07T04:59:22.176Z,17.70
2023-06-07T05:00:22.910Z,17.72
2023-06-07T05:01:13.724Z,17.76
2023-06-07T05:02:33.337Z,17.85
2023-06-07T05:03:28.055Z,17.82
2023-06-07T05:04:04.164Z,17.86
2023-06-07T05:05:42.987Z,17.81
2023-06-07T05:06:21.342Z,17.77
2023-06-07T05:08:02.283Z,17.82
2023-06-07T05:09:10.343Z,17.90
2023-06-07T05:09:50.050Z,17.92
2023-06-07T05:10:41.219Z,17.91
2023-06-07T05:11:19.749Z,17.89
2023-06-07T05:11:56.576Z,17.93
2023-06-07T05:12:33.577Z,17.89
2023-06-07T05:13:10.466Z,17.91
2023-06-07T05:13:48.093Z,18.03
2023-06-07T05:14:28.507Z,18.01
2023-06-07T05:15:12.286Z,18.03
2023-06-07T05:15:54.788Z,18.01
2023-06-07T05:16:33.762Z,18.03
2023-06-07T05:17:08.102Z,17.95
2023-06-07T05:17:48.277Z,17.88
2023-06-07T05:18:23.460Z,17.89
2023-06-07T05:19:00.238Z,17.85
2023-06-07T05:19:38.586Z,17.88
2023-06-07T05:20:13.808Z,17.96
2023-06-07T05:21:25.597Z,17.95
2023-06-07T05:22:01.083Z,17.91
2023-06-07T05:22:38.688Z,17.89
2023-06-07T05:23:17.207Z,17.93
2023-06-07T05:24:00.482Z,17.91
2023-06-07T05:24:50.689Z,18.07
2023-06-07T05:25:29.417Z,18.11
2023-06-07T05:26:04.463Z,18.02
2023-06-07T05:26:40.444Z,18.03
2023-06-07T05:27:19.279Z,18.13
2023-06-07T05:28:08.042Z,18.23
2023-06-07T05:28:47.656Z,18.22
2023-06-07T05:29:21.557Z,18.18
2023-06-07T05:29:55.452Z,18.06
2023-06-07T05:30:30.473Z,18.08
2023-06-07T05:31:11.301Z,18.12
2023-06-07T05:32:20.098Z,18.19
2023-06-07T05:32:59.021Z,18.22
2023-06-07T05:33:34.562Z,18.11
2023-06-07T05:34:13.552Z,17.93
2023-06-07T05:34:53.854Z,17.79
2023-06-07T05:35:29.448Z,17.73
2023-06-07T05:36:08.033Z,17.76
2023-06-07T05:36:49.406Z,17.89
2023-06-07T05:37:58.149Z,17.69
2023-06-07T05:38:36.876Z,17.61
2023-06-07T05:39:10.703Z,17.60
2023-06-07T05:39:49.603Z,17.53
2023-06-07T05:40:23.886Z,17.46
2023-06-07T05:40:57.667Z,17.59
2023-06-07T05:41:30.837Z,17.64
2023-06-07T05:42:05.009Z,17.52
2023-06-07T05:42:39.867Z,17.59
2023-06-07T05:43:13.422Z,17.65
2023-06-07T05:43:48.701Z,17.68
2023-06-07T05:44:22.714Z,17.70
2023-06-07T05:45:44.918Z,17.67
2023-06-07T05:46:22.816Z,17.69
2023-06-07T05:47:28.858Z,17.75
2023-06-07T05:48:05.215Z,17.80
2023-06-07T05:48:39.765Z,17.87
2023-06-07T05:49:14.870Z,17.93
2023-06-07T05:49:48.973Z,17.92
2023-06-07T05:50:53.556Z,17.88
2023-06-07T05:52:02.564Z,17.94
2023-06-07T05:52:42.630Z,17.89
2023-06-07T05:53:17.417Z,17.89
2023-06-07T05:53:52.412Z,17.95
2023-06-07T05:54:30.534Z,17.88
2023-06-07T05:55:04.195Z,17.99
2023-06-07T05:55:37.697Z,18.01
2023-06-07T05:56:20.990Z,17.95
2023-06-07T05:56:56.947Z,18.01
2023-06-07T05:57:37.239Z,18.06
2023-06-07T05:58:12.855Z,18.09
2023-06-07T05:59:12.388Z,18.22
2023-06-07T05:59:47.912Z,18.26
2023-06-07T06:00:23.625Z,18.32
2023-06-07T06:01:04.846Z,18.21
2023-06-07T06:01:56.234Z,18.16
2023-06-07T06:02:34.194Z,18.26
2023-06-07T06:03:10.822Z,18.19
2023-06-07T06:03:49.680Z,18.33
2023-06-07T06:04:43.943Z,18.19
2023-06-07T06:05:19.926Z,18.18
2023-06-07T06:06:29.588Z,18.40
2023-06-07T06:07:04.233Z,18.36
2023-06-07T06:08:17.756Z,18.35
2023-06-07T06:08:54.226Z,18.41
2023-06-07T06:09:32.843Z,18.48
2023-06-07T06:10:07.134Z,18.50
2023-06-07T06:10:48.874Z,18.58
2023-06-07T06:11:27.698Z,18.61
2023-06-07T06:12:17.454Z,18.67
2023-06-07T06:12:57.191Z,18.72
2023-06-07T06:13:33.990Z,18.75
2023-06-07T06:14:07.517Z,18.89
2023-06-07T06:14:40.291Z,18.91
2023-06-07T06:15:49.522Z,18.92
2023-06-07T06:16:24.629Z,18.90
2023-06-07T06:16:59.743Z,18.87
2023-06-07T06:17:35.874Z,19.03
2023-06-07T06:18:15.222Z,19.04
2023-06-07T06:18:48.680Z,19.08
2023-06-07T06:19:29.633Z,19.23
2023-06-07T06:20:09.439Z,19.21
2023-06-07T06:20:51.929Z,19.19
2023-06-07T06:21:24.643Z,19.18
2023-06-07T06:22:31.136Z,19.13
2023-06-07T06:23:07.182Z,19.08
2023-06-07T06:24:16.887Z,19.11
2023-06-07T06:25:49.405Z,19.12
2023-06-07T06:26:56.152Z,18.94
2023-06-07T06:27:38.002Z,19.13
2023-06-07T06:28:13.827Z,19.26
2023-06-07T06:28:52.152Z,19.23
2023-06-07T06:29:46.653Z,19.39
2023-06-07T06:30:27.934Z,19.27
2023-06-07T06:31:08.412Z,19.35
2023-06-07T06:31:45.600Z,19.18
2023-06-07T06:32:33.597Z,19.32
2023-06-07T06:33:07.427Z,19.15
2023-06-07T06:33:56.219Z,19.05
2023-06-07T06:34:40.221Z,19.23
2023-06-07T06:35:14.093Z,19.33
2023-06-07T06:36:22.057Z,19.15
2023-06-07T06:37:13.267Z,19.03
2023-06-07T06:37:47.405Z,19.16
2023-06-07T06:38:31.079Z,19.17
2023-06-07T06:39:12.900Z,18.98
2023-06-07T06:39:52.969Z,19.32
2023-06-07T06:41:24.817Z,19.45
2023-06-07T06:42:00.224Z,19.56
2023-06-07T06:42:41.415Z,19.55
2023-06-07T06:43:18.890Z,19.40
2023-06-07T06:43:57.295Z,19.49
2023-06-07T06:44:38.074Z,19.63
2023-06-07T06:45:16.343Z,19.57
2023-06-07T06:45:53.221Z,19.54
2023-06-07T06:46:29.413Z,19.46
2023-06-07T06:47:08.312Z,19.51
2023-06-07T06:47:43.055Z,19.43
2023-06-07T06:48:21.987Z,19.59
2023-06-07T06:50:32.925Z,19.77
2023-06-07T06:51:46.679Z,19.83
2023-06-07T06:52:55.284Z,19.82
2023-06-07T06:53:29.480Z,19.75
2023-06-07T06:54:05.807Z,19.90
2023-06-07T06:54:47.247Z,19.92
2023-06-07T06:55:23.439Z,19.96
2023-06-07T06:55:59.234Z,20.02
2023-06-07T06:56:32.696Z,19.85
2023-06-07T06:57:09.628Z,19.72
2023-06-07T06:57:48.900Z,19.90
2023-06-07T06:58:24.490Z,19.81
2023-06-07T06:59:01.638Z,20.09
2023-06-07T06:59:41.780Z,20.10
2023-06-07T07:00:53.574Z,20.14
2023-06-07T07:01:44.768Z,19.75
2023-06-07T07:02:23.953Z,19.94
2023-06-07T07:02:59.056Z,19.99
2023-06-07T07:03:35.380Z,20.18
2023-06-07T07:04:07.582Z,19.94
2023-06-07T07:04:40.954Z,19.88
2023-06-07T07:05:16.837Z,19.91
2023-06-07T07:05:55.415Z,20.15
2023-06-07T07:06:29.367Z,20.30
2023-06-07T07:07:06.117Z,20.45
2023-06-07T07:07:41.708Z,20.62
2023-06-07T07:08:18.625Z,20.38
2023-06-07T07:08:52.026Z,20.35
2023-06-07T07:09:32.254Z,20.45
2023-06-07T07:10:42.224Z,20.54
2023-06-07T07:11:15.278Z,20.55
2023-06-07T07:11:51.098Z,20.64
2023-06-07T07:12:25.580Z,20.73
2023-06-07T07:13:01.166Z,20.99
2023-06-07T07:13:35.102Z,21.04
2023-06-07T07:14:08.369Z,21.01
2023-06-07T07:14:44.339Z,21.04
2023-06-07T07:15:18.229Z,21.16
2023-06-07T07:15:51.292Z,21.22
2023-06-07T07:16:26.823Z,21.41
2023-06-07T07:16:59.390Z,21.49
2023-06-07T07:17:33.163Z,21.61
2023-06-07T07:18:08.832Z,21.56
2023-06-07T07:18:40.851Z,21.25
2023-06-07T07:19:46.548Z,21.31
2023-06-07T07:20:22.049Z,21.67
2023-06-07T07:20:57.308Z,21.83
2023-06-07T07:21:38.817Z,21.91
2023-06-07T07:22:12.182Z,22.05
2023-06-07T07:22:46.536Z,22.09
2023-06-07T07:23:58.487Z,22.38
2023-06-07T07:24:34.109Z,22.19
2023-06-07T07:25:12.846Z,21.99
2023-06-07T07:25:49.524Z,22.09
2023-06-07T07:26:25.343Z,22.32
2023-06-07T07:27:05.184Z,22.46
2023-06-07T07:27:41.152Z,22.49
2023-06-07T07:28:50.100Z,22.42
2023-06-07T07:30:07.100Z,22.65
2023-06-07T07:30:40.820Z,22.53
2023-06-07T07:31:16.348Z,22.44
2023-06-07T07:31:48.241Z,22.74
2023-06-07T07:32:55.133Z,22.59
2023-06-07T07:33:27.217Z,22.29
2023-06-07T07:33:59.197Z,22.73
2023-06-07T07:35:10.480Z,22.42
2023-06-07T07:35:42.895Z,22.69
2023-06-07T07:36:16.489Z,22.70
2023-06-07T07:36:49.596Z,22.93
2023-06-07T07:37:21.638Z,22.78
2023-06-07T07:38:34.157Z,23.05
2023-06-07T07:39:09.739Z,22.90
2023-06-07T07:39:49.303Z,23.00
2023-06-07T07:40:33.200Z,23.16
2023-06-07T07:41:43.188Z,23.54
2023-06-07T07:42:19.301Z,23.89
2023-06-07T07:43:05.055Z,23.58
2023-06-07T07:43:47.449Z,23.88
2023-06-07T07:44:23.131Z,23.96
2023-06-07T07:45:01.185Z,23.69
2023-06-07T07:45:33.348Z,23.90
2023-06-07T07:46:43.864Z,23.97
2023-06-07T07:47:22.552Z,23.60
2023-06-07T07:48:01.812Z,23.27
2023-06-07T07:48:45.750Z,23.33
2023-06-07T07:49:24.984Z,23.97
2023-06-07T07:50:18.626Z,24.13
2023-06-07T07:50:52.436Z,24.35
2023-06-07T07:51:58.735Z,24.48
2023-06-07T07:52:36.699Z,24.77
2023-06-07T07:53:08.988Z,24.84
2023-06-07T07:54:15.366Z,24.85
2023-06-07T07:54:47.598Z,25.01
2023-06-07T07:55:19.612Z,25.14
2023-06-07T07:55:51.980Z,25.02
2023-06-07T07:56:24.972Z,24.94
2023-06-07T07:57:33.238Z,24.85
2023-06-07T07:58:07.188Z,24.90
2023-06-07T07:58:39.280Z,24.55
2023-06-07T07:59:13.476Z,24.75
2023-06-07T07:59:54.462Z,24.43
2023-06-07T08:00:34.673Z,24.46
2023-06-07T08:01:43.089Z,24.46
2023-06-07T08:02:50.471Z,24.16
2023-06-07T08:04:00.397Z,24.32
2023-06-07T08:05:10.004Z,24.80
2023-06-07T08:06:33.364Z,24.96
2023-06-07T08:07:05.336Z,25.01
2023-06-07T08:07:39.892Z,24.88
2023-06-07T08:08:12.301Z,24.83
2023-06-07T08:08:48.152Z,24.93
2023-06-07T08:09:20.717Z,24.83
2023-06-07T08:10:29.424Z,24.88
2023-06-07T08:11:02.456Z,24.68
2023-06-07T08:11:36.211Z,24.74
2023-06-07T08:12:09.325Z,24.93
2023-06-07T08:12:41.489Z,24.93
2023-06-07T08:13:14.237Z,24.98
2023-06-07T08:13:46.272Z,24.99
2023-06-07T08:14:19.522Z,24.75
2023-06-07T08:14:51.643Z,25.07
2023-06-07T08:15:23.801Z,25.07
2023-06-07T08:15:56.717Z,25.48
2023-06-07T08:16:28.836Z,25.37
2023-06-07T08:17:00.800Z,25.21
2023-06-07T08:17:32.959Z,25.18
2023-06-07T08:18:05.207Z,25.16
2023-06-07T08:18:37.523Z,25.28
2023-06-07T08:19:10.020Z,25.46
2023-06-07T08:19:42.008Z,25.46
2023-06-07T08:20:13.892Z,25.74
2023-06-07T08:20:45.818Z,25.89
2023-06-07T08:21:17.850Z,26.10
2023-06-07T08:21:49.827Z,26.12
2023-06-07T08:22:21.825Z,26.24
2023-06-07T08:22:54.531Z,26.29
2023-06-07T08:23:27.166Z,26.52
2023-06-07T08:23:59.257Z,26.78
2023-06-07T08:24:31.271Z,26.44
2023-06-07T08:25:03.325Z,26.25
2023-06-07T08:25:35.338Z,26.70
2023-06-07T08:26:07.332Z,26.73
2023-06-07T08:26:39.311Z,26.67
2023-06-07T08:27:11.618Z,26.87
2023-06-07T08:27:43.843Z,27.09
2023-06-07T08:28:17.301Z,26.84
2023-06-07T08:28:49.390Z,27.18
2023-06-07T08:29:23.141Z,27.26
2023-06-07T08:29:55.403Z,27.25
2023-06-07T08:30:27.375Z,27.25
2023-06-07T08:30:59.339Z,26.75
2023-06-07T08:31:32.978Z,26.59
2023-06-07T08:32:05.925Z,26.80
2023-06-07T08:32:37.839Z,26.92
2023-06-07T08:33:09.949Z,27.21
2023-06-07T08:33:42.227Z,27.18
2023-06-07T08:34:14.166Z,27.34
2023-06-07T08:34:46.391Z,27.21
2023-06-07T08:35:18.635Z,27.44
2023-06-07T08:35:50.701Z,27.74
2023-06-07T08:36:23.286Z,27.22
2023-06-07T08:36:56.225Z,27.10
2023-06-07T08:37:28.229Z,27.14
2023-06-07T08:38:01.424Z,27.51
2023-06-07T08:38:33.365Z,27.85
2023-06-07T08:39:05.338Z,27.94
2023-06-07T08:39:37.264Z,27.84
2023-06-07T08:40:12.620Z,27.57
2023-06-07T08:40:44.544Z,26.50
2023-06-07T08:41:16.985Z,25.83
2023-06-07T08:41:49.075Z,25.73
2023-06-07T08:42:21.083Z,25.86
2023-06-07T08:42:53.138Z,26.05
2023-06-07T08:43:25.310Z,25.88
2023-06-07T08:43:57.311Z,25.69
2023-06-07T08:44:29.386Z,25.43
2023-06-07T08:45:01.890Z,25.05
2023-06-07T08:45:34.024Z,25.50
2023-06-07T08:46:06.491Z,25.44
2023-06-07T08:46:39.400Z,25.50
2023-06-07T08:47:14.617Z,25.53
2023-06-07T08:47:46.789Z,25.57
2023-06-07T08:48:19.319Z,25.15
2023-06-07T08:48:53.473Z,24.58
2023-06-07T08:49:26.016Z,24.05
2023-06-07T08:49:58.951Z,23.88
2023-06-07T08:50:31.708Z,24.04
2023-06-07T08:51:08.819Z,24.18
2023-06-07T08:51:43.299Z,24.43
2023-06-07T08:52:17.499Z,24.52
2023-06-07T08:52:54.705Z,24.59
2023-06-07T08:53:38.633Z,24.42
2023-06-07T08:54:15.086Z,24.25
2023-06-07T08:54:49.725Z,24.47
2023-06-07T08:55:23.286Z,24.37
2023-06-07T08:55:56.295Z,24.42
2023-06-07T08:56:30.680Z,24.36
2023-06-07T08:57:03.376Z,24.55
2023-06-07T08:57:35.772Z,24.50
2023-06-07T08:58:10.822Z,24.58
2023-06-07T08:59:18.436Z,24.77
2023-06-07T08:59:51.648Z,24.82
2023-06-07T09:00:24.675Z,24.70
2023-06-07T09:00:59.900Z,24.81
2023-06-07T09:01:37.572Z,24.79
2023-06-07T09:02:09.556Z,24.66
2023-06-07T09:02:41.680Z,24.12
2023-06-07T09:03:14.171Z,23.85
2023-06-07T09:03:46.656Z,23.71
2023-06-07T09:04:19.671Z,24.08
2023-06-07T09:04:52.638Z,24.52
2023-06-07T09:05:24.629Z,24.37
2023-06-07T09:05:57.347Z,24.57
2023-06-07T09:06:29.421Z,24.59
2023-06-07T09:07:05.368Z,24.70
2023-06-07T09:07:37.374Z,24.31
2023-06-07T09:08:09.486Z,24.19
2023-06-07T09:08:41.509Z,24.41
2023-06-07T09:09:13.528Z,24.61
2023-06-07T09:09:45.731Z,24.81
2023-06-07T09:10:20.832Z,24.44
2023-06-07T09:10:52.881Z,24.30
2023-06-07T09:11:24.876Z,24.47
2023-06-07T09:11:57.130Z,24.59
2023-06-07T09:12:29.170Z,24.75
2023-06-07T09:13:01.467Z,24.50
2023-06-07T09:13:34.573Z,24.60
2023-06-07T09:14:06.757Z,24.94
2023-06-07T09:14:38.857Z,25.23
2023-06-07T09:15:19.055Z,25.54
2023-06-07T09:15:53.805Z,25.34
2023-06-07T09:16:26.563Z,25.25
2023-06-07T09:17:01.125Z,25.41
2023-06-07T09:18:01.303Z,25.68
2023-06-07T09:18:46.762Z,26.09
2023-06-07T09:19:32.790Z,26.56
2023-06-07T09:20:20.305Z,26.82
2023-06-07T09:20:52.374Z,26.74
2023-06-07T09:21:28.696Z,26.44
2023-06-07T09:22:01.827Z,26.93
2023-06-07T09:22:34.584Z,26.80
2023-06-07T09:23:14.467Z,27.02
2023-06-07T09:23:46.684Z,26.77
2023-06-07T09:24:30.211Z,26.64
2023-06-07T09:25:08.023Z,26.60
2023-06-07T09:25:40.446Z,27.06
2023-06-07T09:26:13.029Z,27.16
2023-06-07T09:26:45.104Z,26.82
2023-06-07T09:27:30.286Z,26.94
2023-06-07T09:28:12.821Z,26.53
2023-06-07T09:28:48.275Z,26.24
2023-06-07T09:29:21.743Z,26.49
2023-06-07T09:30:04.680Z,26.06
2023-06-07T09:30:37.854Z,26.11
2023-06-07T09:31:09.816Z,26.32
2023-06-07T09:31:41.843Z,26.42
2023-06-07T09:32:25.887Z,26.69
2023-06-07T09:32:58.944Z,27.03
2023-06-07T09:33:35.274Z,26.67
2023-06-07T09:34:29.981Z,26.91
2023-06-07T09:35:22.445Z,26.49
2023-06-07T09:36:08.017Z,26.33
2023-06-07T09:36:53.434Z,26.68
2023-06-07T09:37:42.460Z,26.07
2023-06-07T09:38:27.289Z,26.20
2023-06-07T09:38:59.518Z,25.58
2023-06-07T09:39:34.005Z,25.17
2023-06-07T09:40:12.128Z,25.15
2023-06-07T09:40:52.923Z,25.17
2023-06-07T09:41:32.762Z,25.11
2023-06-07T09:42:16.144Z,25.69
2023-06-07T09:43:00.739Z,26.13
2023-06-07T09:43:48.081Z,25.67
2023-06-07T09:44:27.920Z,25.58
2023-06-07T09:45:19.053Z,25.85
2023-06-07T09:45:57.993Z,25.75
2023-06-07T09:46:37.596Z,26.15
2023-06-07T09:47:22.482Z,26.49
2023-06-07T09:48:05.946Z,25.96
2023-06-07T09:48:56.177Z,26.00
2023-06-07T09:49:32.608Z,25.90
2023-06-07T09:50:09.509Z,26.53
2023-06-07T09:50:58.883Z,26.55
2023-06-07T09:51:41.751Z,26.53
2023-06-07T09:52:16.327Z,26.59
2023-06-07T09:52:57.236Z,26.92
2023-06-07T09:53:29.228Z,26.98
2023-06-07T09:54:06.994Z,26.90
2023-06-07T09:54:44.180Z,26.81
2023-06-07T09:55:31.485Z,26.87
2023-06-07T09:56:17.784Z,27.26
2023-06-07T09:56:49.760Z,27.59
2023-06-07T09:57:27.774Z,26.83
2023-06-07T09:57:59.811Z,26.59
2023-06-07T09:58:32.063Z,25.86
2023-06-07T09:59:12.218Z,25.72
2023-06-07T10:00:08.805Z,25.76
2023-06-07T10:00:57.314Z,25.94
2023-06-07T10:01:34.805Z,25.87
2023-06-07T10:02:33.065Z,26.69
2023-06-07T10:03:08.978Z,27.04
2023-06-07T10:03:48.583Z,27.22
2023-06-07T10:04:21.199Z,27.24
2023-06-07T10:04:58.133Z,27.73
2023-06-07T10:05:31.041Z,27.11
2023-06-07T10:06:03.096Z,27.24
2023-06-07T10:06:40.067Z,27.35
2023-06-07T10:07:14.156Z,27.41
2023-06-07T10:07:48.296Z,27.80
2023-06-07T10:08:20.841Z,27.74
2023-06-07T10:08:53.874Z,27.24
2023-06-07T10:09:27.790Z,26.98
2023-06-07T10:10:01.566Z,26.27
2023-06-07T10:10:36.858Z,25.93
2023-06-07T10:11:09.718Z,26.20
2023-06-07T10:11:47.683Z,26.29
2023-06-07T10:12:22.403Z,26.03
2023-06-07T10:12:57.130Z,25.80
2023-06-07T10:13:29.796Z,26.19
2023-06-07T10:14:12.276Z,26.66
2023-06-07T10:14:47.601Z,26.67
2023-06-07T10:15:26.800Z,26.73
2023-06-07T10:15:59.374Z,26.63
2023-06-07T10:16:36.803Z,27.05
2023-06-07T10:17:14.545Z,26.69
2023-06-07T10:17:56.836Z,26.65
2023-06-07T10:18:31.264Z,26.85
2023-06-07T10:19:37.599Z,26.14
2023-06-07T10:20:16.740Z,26.20
2023-06-07T10:20:58.577Z,26.70
2023-06-07T10:21:35.643Z,26.93
2023-06-07T10:22:15.789Z,26.78
2023-06-07T10:22:50.243Z,26.86
2023-06-07T10:23:43.178Z,26.76
2023-06-07T10:24:23.372Z,26.76
2023-06-07T10:25:13.528Z,26.80
2023-06-07T10:25:54.443Z,27.24
2023-06-07T10:26:39.295Z,27.35
2023-06-07T10:27:15.271Z,27.47
2023-06-07T10:27:52.868Z,27.80
2023-06-07T10:28:42.066Z,27.79
2023-06-07T10:29:23.810Z,28.06
2023-06-07T10:30:08.298Z,27.60
2023-06-07T10:30:46.454Z,27.57
2023-06-07T10:31:19.612Z,27.82
2023-06-07T10:32:07.934Z,27.84
2023-06-07T10:32:40.845Z,27.86
2023-06-07T10:33:13.928Z,28.29
2023-06-07T10:33:46.504Z,27.84
2023-06-07T10:34:21.356Z,27.23
2023-06-07T10:34:56.109Z,26.88
2023-06-07T10:35:30.190Z,27.72
2023-06-07T10:36:02.718Z,27.87
2023-06-07T10:36:39.433Z,27.04
2023-06-07T10:37:14.923Z,27.13
2023-06-07T10:37:52.590Z,27.33
2023-06-07T10:38:25.780Z,27.64
2023-06-07T10:38:58.480Z,26.98
2023-06-07T10:39:30.567Z,27.00
2023-06-07T10:40:11.483Z,26.97
2023-06-07T10:40:44.705Z,27.17
2023-06-07T10:41:17.366Z,27.32
2023-06-07T10:41:49.936Z,27.37
2023-06-07T10:42:22.101Z,26.88
2023-06-07T10:42:57.512Z,26.71
2023-06-07T10:43:31.625Z,26.72
2023-06-07T10:44:04.017Z,26.81
2023-06-07T10:44:38.994Z,26.41
2023-06-07T10:45:16.434Z,26.59
2023-06-07T10:45:48.678Z,26.23
2023-06-07T10:46:24.761Z,26.12
2023-06-07T10:47:25.896Z,26.55
2023-06-07T10:47:58.089Z,26.92
2023-06-07T10:48:39.453Z,26.98
2023-06-07T10:49:38.121Z,26.35
2023-06-07T10:50:33.170Z,26.68
2023-06-07T10:51:05.145Z,26.59
2023-06-07T10:51:43.029Z,26.75
2023-06-07T10:52:16.879Z,26.72
2023-06-07T10:53:04.086Z,27.03
2023-06-07T10:53:55.646Z,27.05
2023-06-07T10:54:32.657Z,27.23
2023-06-07T10:55:29.171Z,27.06
2023-06-07T10:56:27.832Z,26.71
2023-06-07T10:57:01.461Z,26.70
2023-06-07T10:57:38.865Z,27.09
2023-06-07T10:58:27.739Z,26.23
2023-06-07T10:59:23.789Z,26.75
2023-06-07T11:00:29.882Z,26.83
2023-06-07T11:01:25.837Z,26.11
2023-06-07T11:02:29.917Z,26.63
2023-06-07T11:03:12.401Z,26.87
2023-06-07T11:03:45.270Z,26.76
2023-06-07T11:04:39.756Z,27.03
2023-06-07T11:05:12.191Z,27.11
2023-06-07T11:05:59.461Z,27.22
2023-06-07T11:06:34.182Z,27.43
2023-06-07T11:07:19.596Z,27.45
2023-06-07T11:08:30.314Z,27.51
2023-06-07T11:09:23.671Z,26.82
2023-06-07T11:10:02.171Z,26.82
2023-06-07T11:10:35.011Z,27.32
2023-06-07T11:11:42.055Z,27.34
2023-06-07T11:12:46.523Z,26.95
2023-06-07T11:13:18.568Z,27.25
2023-06-07T11:14:13.847Z,27.08
2023-06-07T11:15:22.046Z,27.38
2023-06-07T11:15:54.168Z,27.47
2023-06-07T11:16:26.410Z,27.87
2023-06-07T11:16:58.719Z,27.87
2023-06-07T11:18:13.710Z,27.87
2023-06-07T11:18:55.322Z,27.05
2023-06-07T11:20:00.939Z,27.37
2023-06-07T11:20:44.702Z,27.43
2023-06-07T11:21:17.281Z,27.75
2023-06-07T11:22:07.785Z,27.84
2023-06-07T11:22:40.004Z,28.04
2023-06-07T11:23:21.221Z,28.10
2023-06-07T11:24:14.622Z,27.95
2023-06-07T11:24:49.934Z,27.89
2023-06-07T11:25:22.034Z,27.76
2023-06-07T11:26:07.074Z,28.23
2023-06-07T11:26:39.792Z,27.73
2023-06-07T11:27:12.514Z,26.95
2023-06-07T11:27:44.721Z,26.71
2023-06-07T11:28:19.575Z,26.97
2023-06-07T11:28:52.705Z,26.68
2023-06-07T11:29:24.907Z,27.04
2023-06-07T11:29:57.889Z,27.51
2023-06-07T11:30:29.826Z,27.89
2023-06-07T11:31:05.230Z,27.80
2023-06-07T11:31:38.655Z,27.57
2023-06-07T11:32:11.842Z,27.17
2023-06-07T11:32:46.135Z,27.59
2023-06-07T11:33:19.747Z,27.77
2023-06-07T11:33:52.493Z,28.10
2023-06-07T11:34:25.015Z,28.38
2023-06-07T11:34:58.506Z,28.57
2023-06-07T11:35:33.140Z,28.58
2023-06-07T11:36:10.782Z,28.38
2023-06-07T11:36:44.171Z,28.10
2023-06-07T11:37:17.943Z,27.48
2023-06-07T11:37:49.954Z,27.64
2023-06-07T11:38:23.386Z,27.86
2023-06-07T11:38:56.964Z,27.53
2023-06-07T11:39:34.917Z,27.86
2023-06-07T11:40:09.083Z,27.90
2023-06-07T11:40:41.113Z,27.58
2023-06-07T11:41:13.355Z,27.65
2023-06-07T11:41:48.220Z,27.62
2023-06-07T11:42:24.827Z,27.00
2023-06-07T11:42:56.829Z,27.63
2023-06-07T11:43:31.374Z,27.92
2023-06-07T11:44:04.636Z,27.65
2023-06-07T11:44:36.721Z,27.88
2023-06-07T11:45:19.621Z,28.04
2023-06-07T11:45:52.066Z,27.81
2023-06-07T11:46:24.306Z,28.21
2023-06-07T11:46:57.962Z,28.41
2023-06-07T11:47:29.983Z,28.52
2023-06-07T11:48:03.402Z,28.60
2023-06-07T11:48:35.585Z,28.12
2023-06-07T11:49:29.653Z,28.13
2023-06-07T11:50:20.988Z,27.44
2023-06-07T11:50:53.167Z,27.53
2023-06-07T11:51:25.149Z,27.69
2023-06-07T11:51:59.326Z,28.10
2023-06-07T11:52:31.335Z,28.13
2023-06-07T11:53:03.506Z,27.74
2023-06-07T11:53:35.571Z,27.60
2023-06-07T11:54:09.464Z,27.95
2023-06-07T11:54:43.950Z,27.75
2023-06-07T11:55:18.206Z,27.53
2023-06-07T11:55:51.562Z,27.49
2023-06-07T11:56:23.752Z,27.80
2023-06-07T11:56:55.777Z,27.89
2023-06-07T11:57:33.316Z,27.76
2023-06-07T11:58:09.661Z,27.65
2023-06-07T11:58:42.171Z,26.88
2023-06-07T11:59:16.882Z,26.77
2023-06-07T11:59:52.019Z,27.08
2023-06-07T12:00:25.008Z,26.54
2023-06-07T12:00:58.228Z,26.93
2023-06-07T12:01:31.098Z,26.80
2023-06-07T12:02:03.900Z,26.92
2023-06-07T12:02:41.740Z,26.90
2023-06-07T12:03:15.064Z,26.93
2023-06-07T12:03:48.172Z,27.24
2023-06-07T12:04:25.015Z,27.58
2023-06-07T12:04:57.154Z,27.14
2023-06-07T12:05:32.368Z,26.73
2023-06-07T12:06:04.671Z,26.87
2023-06-07T12:06:37.193Z,26.90
2023-06-07T12:07:18.582Z,27.03
2023-06-07T12:07:58.239Z,27.10
2023-06-07T12:08:32.726Z,27.54
2023-06-07T12:09:13.135Z,27.71
2023-06-07T12:09:45.322Z,27.68
2023-06-07T12:10:24.590Z,28.23
2023-06-07T12:10:56.717Z,28.31
2023-06-07T12:11:28.633Z,28.35
2023-06-07T12:12:00.714Z,28.36
2023-06-07T12:12:32.848Z,28.24
2023-06-07T12:13:16.193Z,28.48
2023-06-07T12:13:54.969Z,28.13
2023-06-07T12:14:32.963Z,28.37
2023-06-07T12:15:06.446Z,28.60
2023-06-07T12:15:49.323Z,28.64
2023-06-07T12:16:25.035Z,28.73
2023-06-07T12:16:58.820Z,28.55
2023-06-07T12:17:37.309Z,27.91
2023-06-07T12:18:15.654Z,27.76
2023-06-07T12:18:47.851Z,27.80
2023-06-07T12:19:20.490Z,27.88
2023-06-07T12:19:52.900Z,27.56
2023-06-07T12:20:26.707Z,27.97
2023-06-07T12:21:09.483Z,28.42
2023-06-07T12:21:41.637Z,27.91
2023-06-07T12:22:13.739Z,28.28
2023-06-07T12:22:45.876Z,28.55
2023-06-07T12:23:22.251Z,28.43
2023-06-07T12:23:57.170Z,28.49
2023-06-07T12:24:29.436Z,28.28
2023-06-07T12:25:09.377Z,28.43
2023-06-07T12:25:42.996Z,28.55
2023-06-07T12:26:17.377Z,28.73
2023-06-07T12:26:49.642Z,28.98
2023-06-07T12:27:22.721Z,29.15
2023-06-07T12:27:54.690Z,28.88
2023-06-07T12:28:27.052Z,28.87
2023-06-07T12:29:03.519Z,28.90
2023-06-07T12:29:35.511Z,29.13
2023-06-07T12:30:09.266Z,28.88
2023-06-07T12:30:48.740Z,28.53
2023-06-07T12:31:21.238Z,28.93
2023-06-07T12:31:57.119Z,28.44
2023-06-07T12:32:29.041Z,28.55
2023-06-07T12:33:02.271Z,28.89
2023-06-07T12:33:34.365Z,28.42
2023-06-07T12:34:07.599Z,28.51
2023-06-07T12:34:45.068Z,28.17
2023-06-07T12:35:17.059Z,27.56
2023-06-07T12:35:50.126Z,27.54
2023-06-07T12:36:29.573Z,27.27
2023-06-07T12:37:01.703Z,27.19
2023-06-07T12:37:36.973Z,27.22
2023-06-07T12:38:08.946Z,27.54
2023-06-07T12:38:40.914Z,28.08
2023-06-07T12:39:14.592Z,27.69
2023-06-07T12:39:46.560Z,27.54
2023-06-07T12:40:18.850Z,27.50
2023-06-07T12:40:51.419Z,27.40
2023-06-07T12:41:29.215Z,26.88
2023-06-07T12:42:01.231Z,26.96
2023-06-07T12:42:36.368Z,26.67
2023-06-07T12:43:08.394Z,26.60
2023-06-07T12:43:49.412Z,26.68
2023-06-07T12:44:21.607Z,27.29
2023-06-07T12:44:55.926Z,26.93
2023-06-07T12:45:28.080Z,27.28
2023-06-07T12:46:00.321Z,27.61
2023-06-07T12:46:32.798Z,28.04
2023-06-07T12:47:05.314Z,27.88
2023-06-07T12:47:37.492Z,27.92
2023-06-07T12:48:09.737Z,27.80
2023-06-07T12:48:44.943Z,27.75
2023-06-07T12:49:17.045Z,27.81
2023-06-07T12:49:49.134Z,27.59
2023-06-07T12:50:21.709Z,27.59
2023-06-07T12:50:53.745Z,27.48
2023-06-07T12:51:26.421Z,27.33
2023-06-07T12:51:58.458Z,27.25
2023-06-07T12:52:30.869Z,27.26
2023-06-07T12:53:03.062Z,27.48
2023-06-07T12:53:35.949Z,27.40
2023-06-07T12:54:07.968Z,27.37
2023-06-07T12:54:40.077Z,27.50
2023-06-07T12:55:12.058Z,27.74
2023-06-07T12:55:44.180Z,27.68
2023-06-07T12:56:16.236Z,27.70
2023-06-07T12:56:48.256Z,27.63
2023-06-07T12:57:20.225Z,27.63
2023-06-07T12:57:52.142Z,27.89
2023-06-07T12:58:24.111Z,27.90
2023-06-07T12:58:56.285Z,27.95
2023-06-07T12:59:28.321Z,28.10
2023-06-07T13:00:00.488Z,28.18
2023-06-07T13:00:32.522Z,28.05
2023-06-07T13:01:04.581Z,28.17
2023-06-07T13:01:39.972Z,28.01
2023-06-07T13:02:12.087Z,27.90
2023-06-07T13:02:44.975Z,28.06
2023-06-07T13:03:18.600Z,27.87
2023-06-07T13:03:51.022Z,27.70
2023-06-07T13:04:23.394Z,27.74
2023-06-07T13:04:55.362Z,27.78
2023-06-07T13:05:30.936Z,27.60
2023-06-07T13:06:03.769Z,27.60
2023-06-07T13:06:37.699Z,27.59
2023-06-07T13:07:09.702Z,27.54
2023-06-07T13:07:42.500Z,27.26
2023-06-07T13:08:14.886Z,27.03
2023-06-07T13:08:47.056Z,26.89
2023-06-07T13:09:20.312Z,26.79
2023-06-07T13:09:52.471Z,26.89
2023-06-07T13:10:26.397Z,26.92
2023-06-07T13:10:58.445Z,26.88
2023-06-07T13:11:30.511Z,27.02
2023-06-07T13:12:06.184Z,27.10
2023-06-07T13:12:40.081Z,27.07
2023-06-07T13:13:12.728Z,27.19
2023-06-07T13:13:44.834Z,27.04
2023-06-07T13:14:16.801Z,27.10
2023-06-07T13:14:48.727Z,26.95
2023-06-07T13:15:20.663Z,26.95
2023-06-07T13:15:52.846Z,26.89
2023-06-07T13:16:24.991Z,26.88